createdAt,value
2023-04-15T00:00:56.672Z,9.10
2023-04-15T00:03:23.596Z,10.03
2023-04-15T00:05:50.359Z,9.68
2023-04-15T00:08:16.884Z,7.72
2023-04-15T00:10:44.842Z,9.25
2023-04-15T00:13:11.335Z,11.23
2023-04-15T00:15:38.117Z,9.33
2023-04-15T00:18:04.721Z,9.80
2023-04-15T00:20:31.300Z,9.25
2023-04-15T00:22:57.999Z,9.60
2023-04-15T00:25:24.706Z,10.52
2023-04-15T00:27:52.574Z,11.83
2023-04-15T00:30:19.262Z,10.02
2023-04-15T00:32:48.099Z,9.63
2023-04-15T00:35:14.640Z,9.20
2023-04-15T00:37:41.360Z,10.55
2023-04-15T00:40:13.078Z,8.57
2023-04-15T00:42:39.681Z,10.50
2023-04-15T00:45:09.048Z,9.98
2023-04-15T00:47:36.379Z,8.30
2023-04-15T00:50:03.154Z,9.93
2023-04-15T00:52:29.746Z,10.77
2023-04-15T00:54:56.433Z,9.88
2023-04-15T00:57:22.944Z,9.95
2023-04-15T00:59:50.054Z,11.48
2023-04-15T01:02:18.334Z,9.68
2023-04-15T01:04:45.097Z,10.50
2023-04-15T01:07:11.619Z,10.73
2023-04-15T01:09:47.716Z,10.10
2023-04-15T01:12:14.946Z,11.07
2023-04-15T01:14:41.751Z,9.95
2023-04-15T01:17:08.363Z,9.63
2023-04-15T01:19:36.497Z,9.85
2023-04-15T01:22:03.585Z,9.70
2023-04-15T01:24:31.879Z,10.70
2023-04-15T01:27:00.061Z,10.80
2023-04-15T01:29:26.714Z,10.90
2023-04-15T01:31:54.961Z,13.15
2023-04-15T01:34:21.991Z,12.90
2023-04-15T01:36:48.647Z,16.52
2023-04-15T01:39:15.317Z,16.45
2023-04-15T01:41:41.863Z,14.17
2023-04-15T01:44:09.755Z,12.77
2023-04-15T01:46:36.626Z,15.57
2023-04-15T01:49:03.359Z,16.90
2023-04-15T01:51:30.107Z,19.30
2023-04-15T01:53:56.684Z,14.77
2023-04-15T01:56:23.468Z,15.73
2023-04-15T01:58:50.390Z,14.27
2023-04-15T02:01:18.526Z,13.05
2023-04-15T02:03:45.600Z,11.57
2023-04-15T02:06:12.209Z,11.53
2023-04-15T02:08:38.723Z,11.80
2023-04-15T02:11:05.547Z,11.02
2023-04-15T02:13:32.212Z,10.60
2023-04-15T02:15:58.969Z,11.55
2023-04-15T02:18:27.198Z,11.37
2023-04-15T02:20:53.777Z,11.02
2023-04-15T02:23:20.297Z,11.10
2023-04-15T02:25:53.935Z,11.88
2023-04-15T02:28:21.097Z,10.63
2023-04-15T02:30:48.189Z,11.97
2023-04-15T02:33:14.775Z,12.02
2023-04-15T02:35:42.807Z,11.48
2023-04-15T02:38:09.347Z,9.73
2023-04-15T02:40:35.879Z,9.82
2023-04-15T02:43:02.399Z,10.03
2023-04-15T02:45:28.998Z,10.45
2023-04-15T02:47:55.553Z,9.13
2023-04-15T02:50:22.178Z,9.20
2023-04-15T02:52:50.049Z,10.15
2023-04-15T02:55:16.602Z,10.83
2023-04-15T02:57:43.236Z,10.50
2023-04-15T03:00:10.670Z,9.63
2023-04-15T03:02:38.332Z,10.25
2023-04-15T03:05:05.940Z,12.18
2023-04-15T03:07:32.585Z,9.57
2023-04-15T03:10:00.482Z,9.48
2023-04-15T03:12:27.051Z,10.38
2023-04-15T03:14:53.708Z,11.95
2023-04-15T03:17:20.327Z,10.95
2023-04-15T03:19:46.904Z,10.73
2023-04-15T03:22:13.541Z,11.80
2023-04-15T03:24:40.125Z,11.40
2023-04-15T03:27:08.073Z,10.68
2023-04-15T03:29:34.705Z,11.00
2023-04-15T03:32:01.189Z,9.63
2023-04-15T03:34:27.810Z,9.93
2023-04-15T03:36:54.290Z,10.35
2023-04-15T03:39:20.822Z,11.35
2023-04-15T03:41:47.380Z,11.27
2023-04-15T03:44:15.256Z,11.90
2023-04-15T03:46:42.060Z,11.35
2023-04-15T03:49:08.646Z,10.75
2023-04-15T03:51:35.268Z,11.88
2023-04-15T03:54:01.823Z,9.68
2023-04-15T03:56:28.365Z,9.10
2023-04-15T03:58:54.983Z,11.23
2023-04-15T04:01:23.072Z,9.82
2023-04-15T04:03:49.870Z,11.00
2023-04-15T04:06:16.702Z,10.07
2023-04-15T04:08:43.291Z,11.13
2023-04-15T04:11:09.880Z,11.13
2023-04-15T04:13:36.651Z,10.93
2023-04-15T04:16:03.372Z,10.43
2023-04-15T04:18:31.563Z,9.65
2023-04-15T04:20:58.161Z,10.67
2023-04-15T04:23:25.326Z,10.85
2023-04-15T04:25:51.851Z,13.32
2023-04-15T04:28:18.352Z,13.07
2023-04-15T04:30:45.221Z,11.13
2023-04-15T04:33:11.728Z,11.77
2023-04-15T04:35:39.854Z,11.10
2023-04-15T04:38:06.344Z,11.23
2023-04-15T04:40:32.913Z,11.73
2023-04-15T04:42:59.772Z,12.50
2023-04-15T04:45:26.393Z,12.17
2023-04-15T04:47:52.983Z,12.02
2023-04-15T04:50:19.558Z,12.75
2023-04-15T04:52:47.423Z,11.32
2023-04-15T04:55:13.946Z,13.10
2023-04-15T04:57:40.551Z,13.13
2023-04-15T05:00:08.163Z,11.75
2023-04-15T05:02:35.000Z,11.82
2023-04-15T05:05:01.618Z,12.23
2023-04-15T05:07:28.428Z,11.30
2023-04-15T05:09:56.379Z,11.27
2023-04-15T05:12:22.968Z,11.30
2023-04-15T05:14:49.619Z,13.95
2023-04-15T05:17:16.126Z,11.88
2023-04-15T05:19:42.643Z,14.23
2023-04-15T05:22:09.306Z,13.90
2023-04-15T05:24:35.817Z,13.07
2023-04-15T05:27:03.747Z,15.55
2023-04-15T05:29:30.327Z,16.42
2023-04-15T05:31:56.899Z,16.92
2023-04-15T05:34:23.479Z,11.73
2023-04-15T05:36:50.012Z,13.63
2023-04-15T05:39:16.528Z,13.95
2023-04-15T05:41:43.071Z,14.65
2023-04-15T05:44:10.929Z,12.73
2023-04-15T05:46:37.552Z,14.77
2023-04-15T05:49:04.217Z,13.32
2023-04-15T05:51:30.890Z,14.57
2023-04-15T05:53:57.450Z,13.18
2023-04-15T05:56:24.044Z,15.57
2023-04-15T05:58:52.454Z,15.70
2023-04-15T06:01:21.653Z,12.48
2023-04-15T06:03:48.483Z,13.23
2023-04-15T06:06:15.059Z,28.90
2023-04-15T06:08:41.656Z,63.97
2023-04-15T06:11:08.176Z,22.90
2023-04-15T06:13:35.072Z,17.75
2023-04-15T06:16:01.694Z,16.90
2023-04-15T06:18:29.625Z,16.25
2023-04-15T06:20:56.301Z,15.00
2023-04-15T06:23:23.013Z,16.67
2023-04-15T06:25:49.515Z,15.60
2023-04-15T06:28:16.083Z,16.40
2023-04-15T06:30:42.688Z,15.55
2023-04-15T06:33:09.286Z,15.75
2023-04-15T06:35:37.290Z,18.97
2023-04-15T06:38:03.895Z,55.17
2023-04-15T06:40:30.534Z,31.20
2023-04-15T06:42:57.084Z,17.83
2023-04-15T06:45:23.619Z,16.55
2023-04-15T06:47:50.175Z,19.23
2023-04-15T06:50:16.751Z,16.58
2023-04-15T06:52:44.800Z,19.23
2023-04-15T06:55:11.388Z,15.90
2023-04-15T06:57:37.926Z,16.17
2023-04-15T07:00:05.266Z,64.20
2023-04-15T07:02:32.087Z,22.63
2023-04-15T07:04:58.780Z,25.35
2023-04-15T07:07:25.607Z,19.75
2023-04-15T07:09:53.515Z,17.35
2023-04-15T07:12:20.292Z,18.63
2023-04-15T07:14:46.850Z,17.95
2023-04-15T07:17:13.718Z,21.33
2023-04-15T07:19:40.595Z,18.98
2023-04-15T07:22:07.344Z,17.55
2023-04-15T07:24:34.071Z,18.47
2023-04-15T07:27:02.143Z,18.60
2023-04-15T07:29:28.706Z,17.98
2023-04-15T07:31:55.232Z,18.63
2023-04-15T07:34:21.801Z,17.23
2023-04-15T07:36:48.519Z,17.90
2023-04-15T07:39:15.049Z,16.15
2023-04-15T07:41:41.761Z,16.65
2023-04-15T07:44:09.620Z,18.88
2023-04-15T07:46:36.344Z,18.80
2023-04-15T07:49:03.209Z,18.17
2023-04-15T07:51:29.924Z,19.73
2023-04-15T07:53:56.468Z,21.13
2023-04-15T07:56:23.017Z,17.70
2023-04-15T07:58:49.665Z,20.15
2023-04-15T08:01:17.594Z,21.57
2023-04-15T08:03:44.391Z,18.75
2023-04-15T08:06:11.009Z,19.73
2023-04-15T08:08:37.518Z,20.75
2023-04-15T08:11:04.073Z,20.50
2023-04-15T08:13:30.749Z,19.43
2023-04-15T08:16:14.462Z,18.83
2023-04-15T08:18:42.493Z,20.35
2023-04-15T08:21:09.006Z,20.60
2023-04-15T08:23:35.594Z,20.00
2023-04-15T08:26:02.313Z,19.30
2023-04-15T08:28:28.984Z,19.55
2023-04-15T08:30:55.575Z,18.25
2023-04-15T08:33:22.307Z,19.55
2023-04-15T08:35:50.183Z,17.90
2023-04-15T08:38:16.717Z,18.53
2023-04-15T08:40:45.016Z,20.08
2023-04-15T08:43:15.132Z,18.55
2023-04-15T08:45:41.983Z,18.30
2023-04-15T08:48:09.930Z,16.25
2023-04-15T08:50:36.436Z,19.40
2023-04-15T08:53:04.387Z,20.35
2023-04-15T08:55:36.309Z,17.70
2023-04-15T08:58:03.226Z,17.35
2023-04-15T09:00:30.900Z,17.77
2023-04-15T09:02:59.135Z,16.97
2023-04-15T09:05:25.910Z,16.40
2023-04-15T09:07:52.636Z,16.85
2023-04-15T09:10:20.569Z,19.38
2023-04-15T09:12:47.113Z,20.75
2023-04-15T09:15:13.803Z,17.33
2023-04-15T09:17:43.514Z,17.92
2023-04-15T09:20:12.019Z,16.95
2023-04-15T09:22:39.158Z,15.77
2023-04-15T09:25:26.824Z,16.73
2023-04-15T09:27:55.077Z,17.67
2023-04-15T09:30:21.970Z,15.75
2023-04-15T09:32:50.543Z,15.60
2023-04-15T09:35:17.584Z,16.35
2023-04-15T09:37:44.318Z,16.17
2023-04-15T09:40:12.032Z,16.07
2023-04-15T09:42:54.530Z,16.77
2023-04-15T09:45:21.866Z,15.05
2023-04-15T09:47:48.493Z,14.38
2023-04-15T09:52:56.244Z,14.60
2023-04-15T09:55:23.071Z,14.60
2023-04-15T09:57:50.967Z,15.20
2023-04-15T10:00:17.710Z,14.23
2023-04-15T10:02:44.883Z,15.43
2023-04-15T10:05:14.819Z,12.67
2023-04-15T10:07:42.408Z,13.13
2023-04-15T10:10:09.600Z,14.23
2023-04-15T10:12:37.622Z,13.73
2023-04-15T10:15:07.424Z,12.25
2023-04-15T10:17:34.462Z,12.17
2023-04-15T10:20:01.825Z,11.70
2023-04-15T10:22:28.918Z,13.30
2023-04-15T10:24:56.453Z,12.63
2023-04-15T10:27:23.550Z,12.48
2023-04-15T10:29:51.149Z,12.13
2023-04-15T10:32:21.233Z,12.88
2023-04-15T10:34:49.646Z,12.77
2023-04-15T10:37:21.378Z,13.02
2023-04-15T10:39:48.259Z,13.55
2023-04-15T10:42:16.607Z,11.47
2023-04-15T10:44:45.575Z,13.20
2023-04-15T10:47:13.498Z,11.75
2023-04-15T10:49:48.851Z,9.63
2023-04-15T10:52:16.417Z,10.52
2023-04-15T10:54:43.417Z,10.20
2023-04-15T10:57:16.052Z,11.40
2023-04-15T11:00:11.606Z,11.20
2023-04-15T11:02:43.616Z,12.52
2023-04-15T11:05:43.584Z,11.35
2023-04-15T11:08:12.686Z,12.93
2023-04-15T11:10:54.342Z,10.52
2023-04-15T11:13:22.825Z,12.63
2023-04-15T11:15:49.875Z,11.00
2023-04-15T11:18:18.052Z,10.98
2023-04-15T11:20:46.675Z,11.47
2023-04-15T11:23:15.827Z,11.13
2023-04-15T11:25:43.640Z,11.50
2023-04-15T11:28:12.449Z,11.02
2023-04-15T11:30:39.761Z,12.00
2023-04-15T11:33:08.322Z,11.30
2023-04-15T11:35:35.608Z,12.70
2023-04-15T11:38:03.708Z,12.38
2023-04-15T11:40:32.073Z,12.27
2023-04-15T11:43:05.842Z,11.65
2023-04-15T11:45:32.686Z,11.27
2023-04-15T11:48:06.521Z,11.70
2023-04-15T11:50:33.696Z,12.55
2023-04-15T11:53:01.749Z,13.90
2023-04-15T11:55:28.888Z,11.05
2023-04-15T11:58:15.650Z,11.23
2023-04-15T12:00:46.903Z,11.23
2023-04-15T12:03:15.186Z,12.02
2023-04-15T12:06:16.072Z,10.93
2023-04-15T12:08:50.811Z,11.50
2023-04-15T12:11:17.627Z,11.33
2023-04-15T12:13:47.195Z,10.85
2023-04-15T12:16:16.453Z,28.65
2023-04-15T12:18:45.586Z,12.52
2023-04-15T12:21:12.416Z,10.52
2023-04-15T12:23:40.114Z,8.60
2023-04-15T12:26:06.863Z,8.82
2023-04-15T12:28:34.549Z,8.90
2023-04-15T12:31:07.429Z,8.40
2023-04-15T12:33:34.204Z,8.93
2023-04-15T12:36:00.896Z,8.20
2023-04-15T12:38:27.682Z,8.25
2023-04-15T12:40:54.201Z,7.93
2023-04-15T12:43:20.768Z,9.82
2023-04-15T12:45:47.335Z,8.02
2023-04-15T12:48:15.259Z,7.47
2023-04-15T12:50:41.815Z,10.25
2023-04-15T12:53:08.670Z,7.20
2023-04-15T12:55:35.236Z,7.03
2023-04-15T12:58:01.783Z,9.65
2023-04-15T13:00:28.340Z,9.17
2023-04-15T13:02:55.181Z,7.05
2023-04-15T13:05:23.150Z,6.57
2023-04-15T13:07:49.825Z,6.95
2023-04-15T13:10:16.563Z,8.20
2023-04-15T13:12:43.245Z,7.67
2023-04-15T13:15:11.066Z,7.43
2023-04-15T13:17:38.404Z,6.68
2023-04-15T13:20:05.877Z,7.68
2023-04-15T13:22:33.813Z,7.18
2023-04-15T13:25:00.344Z,7.90
2023-04-15T13:27:27.053Z,7.63
2023-04-15T13:29:54.149Z,7.97
2023-04-15T13:32:20.804Z,7.40
2023-04-15T13:34:47.358Z,10.63
2023-04-15T13:37:13.932Z,10.00
2023-04-15T13:39:41.813Z,6.40
2023-04-15T13:42:08.499Z,7.57
2023-04-15T13:44:35.095Z,8.00
2023-04-15T13:47:01.670Z,6.93
2023-04-15T13:49:28.202Z,7.83
2023-04-15T13:51:54.746Z,7.72
2023-04-15T13:54:21.276Z,7.25
2023-04-15T13:56:49.184Z,6.85
2023-04-15T13:59:15.753Z,6.50
2023-04-15T14:01:42.364Z,6.63
2023-04-15T14:04:09.417Z,6.90
2023-04-15T14:06:36.351Z,7.70
2023-04-15T14:09:03.126Z,7.72
2023-04-15T14:11:30.004Z,7.70
2023-04-15T14:13:57.985Z,6.53
2023-04-15T14:16:24.671Z,6.25
2023-04-15T14:18:51.235Z,8.25
2023-04-15T14:21:17.824Z,7.53
2023-04-15T14:23:44.398Z,6.10
2023-04-15T14:26:10.989Z,8.03
2023-04-15T14:28:37.679Z,8.35
2023-04-15T14:31:05.793Z,8.40
2023-04-15T14:33:32.398Z,7.93
2023-04-15T14:35:59.016Z,9.63
2023-04-15T14:38:25.610Z,9.57
2023-04-15T14:40:52.179Z,8.68
2023-04-15T14:43:18.725Z,8.27
2023-04-15T14:45:45.706Z,7.07
2023-04-15T14:48:13.829Z,9.50
2023-04-15T14:50:40.669Z,8.10
2023-04-15T14:53:07.197Z,8.80
2023-04-15T14:55:33.785Z,7.97
2023-04-15T14:58:00.322Z,9.07
2023-04-15T15:00:26.921Z,8.18
2023-04-15T15:02:53.697Z,9.17
2023-04-15T15:05:21.998Z,7.75
2023-04-15T15:07:48.779Z,7.30
2023-04-15T15:10:15.278Z,6.97
2023-04-15T15:12:41.782Z,6.72
2023-04-15T15:15:19.502Z,8.20
2023-04-15T15:17:55.129Z,7.50
2023-04-15T15:20:23.356Z,8.57
2023-04-15T15:22:50.033Z,7.65
2023-04-15T15:25:16.849Z,9.25
2023-04-15T15:27:43.447Z,9.20
2023-04-15T15:30:11.273Z,9.35
2023-04-15T15:32:39.552Z,9.18
2023-04-15T15:35:06.769Z,10.07
2023-04-15T15:37:35.517Z,11.52
2023-04-15T15:40:03.900Z,12.23
2023-04-15T15:42:31.707Z,12.48
2023-04-15T15:44:58.308Z,12.25
2023-04-15T15:47:25.130Z,12.50
2023-04-15T15:49:51.748Z,10.20
2023-04-15T15:52:18.317Z,13.33
2023-04-15T15:54:46.220Z,11.15
2023-04-15T15:57:12.805Z,12.35
2023-04-15T15:59:39.389Z,12.05
2023-04-15T16:02:06.113Z,13.15
2023-04-15T16:04:33.025Z,13.20
2023-04-15T16:06:59.846Z,12.90
2023-04-15T16:09:26.581Z,11.75
2023-04-15T16:11:54.560Z,11.68
2023-04-15T16:14:21.236Z,12.98
2023-04-15T16:16:47.885Z,14.57
2023-04-15T16:19:14.455Z,12.13
2023-04-15T16:21:41.155Z,12.68
2023-04-15T16:24:07.716Z,13.32
2023-04-15T16:26:34.520Z,21.05
2023-04-15T16:29:03.065Z,15.30
2023-04-15T16:31:30.232Z,13.63
2023-04-15T16:33:57.406Z,16.23
2023-04-15T16:36:24.140Z,12.90
2023-04-15T16:38:50.668Z,11.18
2023-04-15T16:41:17.326Z,11.80
2023-04-15T16:43:44.068Z,14.35
2023-04-15T16:46:12.013Z,12.60
2023-04-15T16:48:38.740Z,12.10
2023-04-15T16:51:05.932Z,14.23
2023-04-15T16:53:32.457Z,12.40
2023-04-15T16:55:59.089Z,13.85
2023-04-15T16:58:25.927Z,13.32
2023-04-15T17:00:52.707Z,12.30
2023-04-15T17:03:20.729Z,11.70
2023-04-15T17:05:47.402Z,13.53
2023-04-15T17:08:13.942Z,11.25
2023-04-15T17:10:40.633Z,12.60
2023-04-15T17:13:07.383Z,16.77
2023-04-15T17:15:33.996Z,14.68
2023-04-15T17:18:00.666Z,13.43
2023-04-15T17:20:29.918Z,14.18
2023-04-15T17:22:56.570Z,12.68
2023-04-15T17:25:23.224Z,12.05
2023-04-15T17:27:49.919Z,14.55
2023-04-15T17:30:16.513Z,16.70
2023-04-15T17:32:43.118Z,16.38
2023-04-15T17:35:10.196Z,15.48
2023-04-15T17:37:38.796Z,12.70
2023-04-15T17:40:08.621Z,13.13
2023-04-15T17:42:35.759Z,19.40
2023-04-15T17:45:02.374Z,16.98
2023-04-15T17:47:29.100Z,13.73
2023-04-15T17:49:55.710Z,14.20
2023-04-15T17:52:22.280Z,17.20
2023-04-15T17:54:50.247Z,21.67
2023-04-15T17:57:16.947Z,16.58
2023-04-15T17:59:43.540Z,17.20
2023-04-15T18:02:10.293Z,16.08
2023-04-15T18:04:37.144Z,30.13
2023-04-15T18:07:04.810Z,26.07
2023-04-15T18:09:31.807Z,23.23
2023-04-15T18:11:59.749Z,19.10
2023-04-15T18:14:34.296Z,36.75
2023-04-15T18:17:01.801Z,18.52
2023-04-15T18:19:29.291Z,15.07
2023-04-15T18:21:55.856Z,15.35
2023-04-15T18:24:22.388Z,18.20
2023-04-15T18:26:49.318Z,16.30
2023-04-15T18:29:17.364Z,15.55
2023-04-15T18:31:44.102Z,13.93
2023-04-15T18:34:10.894Z,14.63
2023-04-15T18:36:37.642Z,16.08
2023-04-15T18:39:05.553Z,15.02
2023-04-15T18:41:32.404Z,16.45
2023-04-15T18:43:58.989Z,14.50
2023-04-15T18:46:54.931Z,15.05
2023-04-15T18:49:21.449Z,27.08
2023-04-15T18:51:48.068Z,17.73
2023-04-15T18:54:14.810Z,15.82
2023-04-15T18:56:41.681Z,15.50
2023-04-15T18:59:09.014Z,15.38
2023-04-15T19:01:56.467Z,13.43
2023-04-15T19:04:23.234Z,14.32
2023-04-15T19:06:49.861Z,13.18
2023-04-15T19:09:16.448Z,14.00
2023-04-15T19:11:43.708Z,14.27
2023-04-15T19:14:10.272Z,15.93
2023-04-15T19:16:37.049Z,12.88
2023-04-15T19:19:05.350Z,15.70
2023-04-15T19:21:32.283Z,14.00
2023-04-15T19:23:59.481Z,15.32
2023-04-15T19:26:26.334Z,15.43
2023-04-15T19:28:52.905Z,14.68
2023-04-15T19:31:19.720Z,15.40
2023-04-15T19:33:46.621Z,13.97
2023-04-15T19:36:14.575Z,14.57
2023-04-15T19:38:41.277Z,14.98
2023-04-15T19:41:07.823Z,15.45
2023-04-15T19:43:34.381Z,15.68
2023-04-15T19:46:01.000Z,18.23
2023-04-15T19:48:27.615Z,18.52
2023-04-15T19:50:54.302Z,18.45
2023-04-15T19:53:22.375Z,17.33
2023-04-15T19:55:48.974Z,19.75
2023-04-15T19:58:15.609Z,19.20
2023-04-15T20:00:42.408Z,22.08
2023-04-15T20:03:09.319Z,20.90
2023-04-15T20:05:35.996Z,21.00
2023-04-15T20:08:02.800Z,20.85
2023-04-15T20:10:30.741Z,21.80
2023-04-15T20:12:57.593Z,22.17
2023-04-15T20:15:24.301Z,22.33
2023-04-15T20:17:51.223Z,23.30
2023-04-15T20:20:17.871Z,24.48
2023-04-15T20:22:44.571Z,28.53
2023-04-15T20:25:11.124Z,25.98
2023-04-15T20:27:39.256Z,22.90
2023-04-15T20:30:12.250Z,25.10
2023-04-15T20:32:39.063Z,27.45
2023-04-15T20:35:06.390Z,24.23
2023-04-15T20:37:33.949Z,25.27
2023-04-15T20:40:01.285Z,26.13
2023-04-15T20:42:28.288Z,22.95
2023-04-15T20:44:56.245Z,23.60
2023-04-15T20:47:23.305Z,25.63
2023-04-15T20:49:50.022Z,25.35
2023-04-15T20:52:16.602Z,25.23
2023-04-15T20:54:43.884Z,22.65
2023-04-15T20:57:10.424Z,25.48
2023-04-15T20:59:36.983Z,26.00
2023-04-15T21:02:04.999Z,23.05
2023-04-15T21:04:31.669Z,24.67
2023-04-15T21:06:58.253Z,24.27
2023-04-15T21:09:24.844Z,23.85
2023-04-15T21:12:00.979Z,22.30
2023-04-15T21:14:28.495Z,23.83
2023-04-15T21:16:56.784Z,25.80
2023-04-15T21:19:24.854Z,25.52
2023-04-15T21:21:51.395Z,25.45
2023-04-15T21:24:17.985Z,24.37
2023-04-15T21:26:46.492Z,25.92
2023-04-15T21:29:13.347Z,26.80
2023-04-15T21:31:40.422Z,27.23
2023-04-15T21:34:07.089Z,27.45
2023-04-15T21:36:35.521Z,28.50
2023-04-15T21:39:02.330Z,26.63
2023-04-15T21:41:29.182Z,28.30
2023-04-15T21:43:56.010Z,27.13
2023-04-15T21:46:25.404Z,30.23
2023-04-15T21:48:53.740Z,26.03
2023-04-15T21:51:20.461Z,30.98
2023-04-15T21:53:48.390Z,28.52
2023-04-15T21:56:15.169Z,28.92
2023-04-15T21:58:41.752Z,29.00
2023-04-15T22:01:08.308Z,31.17
2023-04-15T22:03:35.271Z,31.05
2023-04-15T22:06:02.918Z,30.73
2023-04-15T22:08:32.132Z,31.83
2023-04-15T22:11:01.730Z,29.70
2023-04-15T22:13:28.265Z,31.07
2023-04-15T22:15:54.976Z,30.48
2023-04-15T22:18:21.618Z,33.15
2023-04-15T22:20:48.126Z,34.10
2023-04-15T22:23:15.586Z,30.45
2023-04-15T22:25:43.278Z,31.83
2023-04-15T22:28:13.078Z,28.88
2023-04-15T22:30:42.925Z,31.75
2023-04-15T22:33:09.941Z,31.38
2023-04-15T22:35:37.013Z,31.58
2023-04-15T22:38:04.611Z,32.40
2023-04-15T22:40:31.299Z,30.52
2023-04-15T22:42:57.874Z,34.92
2023-04-15T22:45:25.731Z,34.35
2023-04-15T22:47:52.434Z,31.27
2023-04-15T22:50:19.251Z,29.60
2023-04-15T22:52:46.312Z,31.20
2023-04-15T22:55:12.858Z,26.92
2023-04-15T22:57:39.446Z,25.42
2023-04-15T23:00:07.267Z,26.20
2023-04-15T23:02:35.207Z,26.47
2023-04-15T23:05:02.601Z,25.35
2023-04-15T23:07:39.327Z,24.35
2023-04-15T23:10:07.300Z,25.55
2023-04-15T23:12:33.913Z,26.52
2023-04-15T23:15:00.470Z,26.20
2023-04-15T23:17:27.141Z,28.73
2023-04-15T23:19:55.116Z,25.80
2023-04-15T23:22:21.669Z,25.92
2023-04-15T23:24:48.237Z,25.98
2023-04-15T23:27:14.888Z,26.70
2023-04-15T23:29:41.597Z,27.00
2023-04-15T23:32:08.099Z,27.48
2023-04-15T23:34:34.623Z,26.60
2023-04-15T23:37:02.693Z,30.40
2023-04-15T23:39:29.408Z,28.73
2023-04-15T23:41:56.157Z,27.08
2023-04-15T23:44:28.428Z,27.42
2023-04-15T23:46:55.009Z,30.80
2023-04-15T23:49:24.369Z,28.95
2023-04-15T23:51:50.915Z,31.27
2023-04-15T23:54:18.824Z,25.67
2023-04-15T23:56:45.532Z,30.63
2023-04-15T23:59:13.877Z,29.48
